createdAt,value
2019-01-06T00:01:39.492Z,66.53
2019-01-06T00:07:15.813Z,58.53
2019-01-06T00:12:44.095Z,57.30
2019-01-06T00:18:14.261Z,55.53
2019-01-06T00:23:52.609Z,57.80
2019-01-06T00:29:22.142Z,62.27
2019-01-06T00:34:38.812Z,46.07
2019-01-06T00:40:01.351Z,52.63
2019-01-06T00:45:28.586Z,47.83
2019-01-06T00:50:51.389Z,57.70
2019-01-06T00:56:32.953Z,49.60
2019-01-06T01:02:02.696Z,47.97
2019-01-06T01:07:44.749Z,53.37
2019-01-06T01:13:01.319Z,52.03
2019-01-06T01:18:28.081Z,60.97
2019-01-06T01:23:52.281Z,60.90
2019-01-06T01:29:22.265Z,60.70
2019-01-06T01:34:41.075Z,59.00
2019-01-06T01:40:05.081Z,55.37
2019-01-06T01:45:32.034Z,53.30
2019-01-06T01:50:45.395Z,51.93
2019-01-06T01:56:07.911Z,47.33
2019-01-06T02:01:30.523Z,52.50
2019-01-06T02:07:02.611Z,48.77
2019-01-06T02:12:32.856Z,49.10
2019-01-06T02:17:59.842Z,59.60
2019-01-06T02:23:26.588Z,62.67
2019-01-06T02:28:49.385Z,54.10
2019-01-06T02:34:12.314Z,61.80
2019-01-06T02:39:45.350Z,46.93
2019-01-06T02:45:00.230Z,44.50
2019-01-06T02:50:22.921Z,43.93
2019-01-06T02:55:40.436Z,50.47
2019-01-06T03:01:03.104Z,54.83
2019-01-06T03:06:30.463Z,52.00
2019-01-06T03:11:52.986Z,47.90
2019-01-06T03:17:16.934Z,51.67
2019-01-06T03:22:39.705Z,57.03
2019-01-06T03:28:03.203Z,51.37
2019-01-06T03:33:33.036Z,53.03
2019-01-06T03:38:58.143Z,52.30
2019-01-06T03:44:22.099Z,51.37
2019-01-06T03:49:43.579Z,52.73
2019-01-06T03:55:16.571Z,60.53
2019-01-06T04:00:39.008Z,52.70
2019-01-06T04:06:06.954Z,55.27
2019-01-06T04:11:29.626Z,49.17
2019-01-06T04:17:02.207Z,51.53
2019-01-06T04:22:28.929Z,58.77
2019-01-06T04:28:09.471Z,48.17
2019-01-06T04:33:44.418Z,61.97
2019-01-06T04:39:08.935Z,59.17
2019-01-06T04:44:31.437Z,58.37
2019-01-06T04:49:58.137Z,59.53
2019-01-06T04:55:20.983Z,52.77
2019-01-06T05:00:43.488Z,49.93
2019-01-06T05:06:02.771Z,54.07
2019-01-06T05:11:35.922Z,58.83
2019-01-06T05:17:01.425Z,44.10
2019-01-06T05:22:25.389Z,54.40
2019-01-06T05:27:43.166Z,55.17
2019-01-06T05:33:05.973Z,54.23
2019-01-06T05:38:29.987Z,59.70
2019-01-06T05:43:50.450Z,74.10
2019-01-06T05:49:26.320Z,54.73
2019-01-06T05:55:02.436Z,63.70
2019-01-06T06:00:35.967Z,64.93
2019-01-06T06:06:02.916Z,72.50
2019-01-06T06:11:25.660Z,60.23
2019-01-06T06:17:03.391Z,67.93
2019-01-06T06:22:33.148Z,65.47
2019-01-06T06:27:55.135Z,77.23
2019-01-06T06:33:19.107Z,65.30
2019-01-06T06:38:53.602Z,66.80
2019-01-06T06:44:16.179Z,59.77
2019-01-06T06:49:38.693Z,67.30
2019-01-06T06:55:02.740Z,71.40
2019-01-06T07:00:54.308Z,70.23
2019-01-06T07:06:18.289Z,64.50
2019-01-06T07:11:45.049Z,76.40
2019-01-06T07:17:39.448Z,82.87
2019-01-06T07:23:18.745Z,91.40
2019-01-06T07:28:42.682Z,89.77
2019-01-06T07:34:00.152Z,101.37
2019-01-06T07:39:29.075Z,117.07
2019-01-06T07:44:56.141Z,127.27
2019-01-06T07:50:23.128Z,128.57
2019-01-06T07:55:49.873Z,121.60
2019-01-06T08:01:26.066Z,115.43
2019-01-06T08:07:05.099Z,116.13
2019-01-06T08:12:33.804Z,115.17
2019-01-06T08:17:56.688Z,118.33
2019-01-06T08:23:29.467Z,126.13
2019-01-06T08:28:52.014Z,149.10
2019-01-06T08:34:14.835Z,157.47
2019-01-06T08:39:44.784Z,173.70
2019-01-06T08:45:20.620Z,159.53
2019-01-06T08:50:44.571Z,146.47
2019-01-06T08:56:07.352Z,178.83
2019-01-06T09:01:31.309Z,157.73
2019-01-06T09:06:49.567Z,175.37
2019-01-06T09:12:31.561Z,184.63
2019-01-06T09:18:04.566Z,180.87
2019-01-06T09:23:24.595Z,182.77
2019-01-06T09:28:47.168Z,155.13
2019-01-06T09:34:10.003Z,154.03
2019-01-06T09:40:01.745Z,170.47
2019-01-06T09:45:25.241Z,163.03
2019-01-06T09:50:48.067Z,121.33
2019-01-06T09:56:10.957Z,77.17
2019-01-06T10:01:33.715Z,76.53
2019-01-06T10:06:57.675Z,72.53
2019-01-06T10:12:21.631Z,83.00
2019-01-06T10:17:44.945Z,106.93
2019-01-06T10:23:14.999Z,102.27
2019-01-06T10:28:37.713Z,115.90
2019-01-06T10:33:56.935Z,113.53
2019-01-06T10:39:34.838Z,124.53
2019-01-06T10:45:04.351Z,136.03
2019-01-06T10:50:43.655Z,126.47
2019-01-06T10:56:07.595Z,141.97
2019-01-06T11:01:30.519Z,135.57
2019-01-06T11:06:57.554Z,130.00
2019-01-06T11:12:20.087Z,122.77
2019-01-06T11:17:50.142Z,74.50
2019-01-06T11:23:12.600Z,71.10
2019-01-06T11:28:34.584Z,41.17
2019-01-06T11:34:04.327Z,46.23
2019-01-06T11:39:40.331Z,41.63
2019-01-06T11:45:04.317Z,42.97
2019-01-06T11:50:34.263Z,30.50
2019-01-06T12:06:54.852Z,31.47
2019-01-06T12:12:13.107Z,30.10
2019-01-06T12:17:36.123Z,22.60
2019-01-06T12:23:18.392Z,11.10
2019-01-06T12:28:40.685Z,11.13
2019-01-06T12:34:22.704Z,11.70
2019-01-06T12:39:46.652Z,10.13
2019-01-06T12:45:13.506Z,11.07
2019-01-06T12:50:37.479Z,9.67
2019-01-06T12:56:00.227Z,10.57
2019-01-06T13:01:33.248Z,14.97
2019-01-06T13:06:55.867Z,10.13
2019-01-06T13:12:18.581Z,11.53
2019-01-06T13:17:47.754Z,10.63
2019-01-06T13:23:05.426Z,10.43
2019-01-06T13:28:32.387Z,10.27
2019-01-06T13:34:11.374Z,58.17
2019-01-06T13:39:35.371Z,99.03
2019-01-06T13:45:11.503Z,79.77
2019-01-06T13:50:34.213Z,206.10
2019-01-06T13:56:02.064Z,170.13
2019-01-06T14:01:26.222Z,166.50
2019-01-06T14:06:50.346Z,161.33
2019-01-06T14:12:08.845Z,136.57
2019-01-06T14:17:38.626Z,173.97
2019-01-06T14:23:05.627Z,145.20
2019-01-06T14:28:36.331Z,102.87
2019-01-06T14:34:06.908Z,57.40
2019-01-06T14:39:47.394Z,61.10
2019-01-06T14:45:13.227Z,63.53
2019-01-06T14:50:37.335Z,71.70
2019-01-06T14:56:07.615Z,52.80
2019-01-06T15:01:31.759Z,34.93
2019-01-06T15:06:56.198Z,22.00
2019-01-06T15:12:16.995Z,19.37
2019-01-06T15:17:54.581Z,20.93
2019-01-06T15:23:28.336Z,27.97
2019-01-06T15:28:50.901Z,25.50
2019-01-06T15:34:20.787Z,24.00
2019-01-06T15:39:46.815Z,19.93
2019-01-06T15:45:20.090Z,22.03
2019-01-06T15:50:51.908Z,22.13
2019-01-06T15:56:18.707Z,23.03
2019-01-06T16:01:40.568Z,21.37
2019-01-06T16:07:05.872Z,16.27
2019-01-06T16:12:40.232Z,16.17
2019-01-06T16:18:04.648Z,19.20
2019-01-06T16:23:28.471Z,18.23
2019-01-06T16:28:51.400Z,18.47
2019-01-06T16:34:22.954Z,22.67
2019-01-06T16:39:53.210Z,20.77
2019-01-06T16:45:32.221Z,20.20
2019-01-06T16:51:08.225Z,19.70
2019-01-06T16:56:30.748Z,17.67
2019-01-06T17:01:53.275Z,19.87
2019-01-06T17:07:17.229Z,23.57
2019-01-06T17:12:39.750Z,29.80
2019-01-06T17:18:16.139Z,39.80
2019-01-06T17:23:46.168Z,43.30
2019-01-06T17:29:26.075Z,47.97
2019-01-06T17:34:50.043Z,60.83
2019-01-06T17:40:13.034Z,58.63
2019-01-06T17:45:35.860Z,66.80
2019-01-06T17:50:58.322Z,117.63
2019-01-06T17:56:25.569Z,92.60
2019-01-06T18:01:42.993Z,88.73
2019-01-06T18:06:56.396Z,104.70
2019-01-06T18:12:15.540Z,115.07
2019-01-06T18:17:42.275Z,81.77
2019-01-06T18:23:09.025Z,60.63
2019-01-06T18:28:38.777Z,56.13
2019-01-06T18:34:09.588Z,56.43
2019-01-06T18:39:34.757Z,52.27
2019-01-06T18:44:57.949Z,57.63
2019-01-06T18:50:27.976Z,62.17
2019-01-06T18:55:54.734Z,58.63
2019-01-06T19:01:17.399Z,48.70
2019-01-06T19:06:40.536Z,58.13
2019-01-06T19:12:04.474Z,79.07
2019-01-06T19:17:27.014Z,82.50
2019-01-06T19:22:54.054Z,88.07
2019-01-06T19:28:36.434Z,96.53
2019-01-06T19:34:00.338Z,81.40
2019-01-06T19:39:41.686Z,84.80
2019-01-06T19:45:11.751Z,84.80
2019-01-06T19:50:44.718Z,72.20
2019-01-06T19:56:07.421Z,76.70
2019-01-06T20:01:30.027Z,71.33
2019-01-06T20:06:58.130Z,84.47
2019-01-06T20:12:27.905Z,98.37
2019-01-06T20:17:50.672Z,93.53
2019-01-06T20:23:33.209Z,88.67
2019-01-06T20:28:59.886Z,62.60
2019-01-06T20:34:22.394Z,73.13
2019-01-06T20:40:04.531Z,84.60
2019-01-06T20:45:34.462Z,84.70
2019-01-06T20:50:57.265Z,95.47
2019-01-06T20:56:39.655Z,76.93
2019-01-06T21:02:02.456Z,77.17
2019-01-06T21:07:24.374Z,74.73
2019-01-06T21:13:06.829Z,71.20
2019-01-06T21:18:36.334Z,64.90
2019-01-06T21:23:59.096Z,65.67
2019-01-06T21:29:24.724Z,65.47
2019-01-06T21:35:01.110Z,62.07
2019-01-06T21:40:28.813Z,68.60
2019-01-06T21:46:10.927Z,63.00
2019-01-06T21:51:47.250Z,62.17
2019-01-06T21:57:20.518Z,57.20
2019-01-06T22:02:43.289Z,55.07
2019-01-06T22:08:01.037Z,48.60
2019-01-06T22:13:16.834Z,48.73
2019-01-06T22:18:39.632Z,49.03
2019-01-06T22:24:10.217Z,46.10
2019-01-06T22:29:34.177Z,42.17
2019-01-06T22:34:57.070Z,39.90
2019-01-06T22:40:15.513Z,40.37
2019-01-06T22:45:38.303Z,34.27
2019-01-06T22:51:05.164Z,29.23
2019-01-06T22:56:27.740Z,25.03
2019-01-06T23:01:57.557Z,26.37
2019-01-06T23:07:30.695Z,26.40
2019-01-06T23:12:53.265Z,40.97
2019-01-06T23:18:15.971Z,22.97
2019-01-06T23:23:35.180Z,23.10
2019-01-06T23:28:59.149Z,52.00
2019-01-06T23:34:29.081Z,17.80
2019-01-06T23:39:51.902Z,17.40
2019-01-06T23:45:13.000Z,21.53
2019-01-06T23:50:32.486Z,20.53
2019-01-06T23:56:08.507Z,20.90
